Lake Shore, Maryland
Current Conditions -  °F | °C
As of 1:54 PM on Friday 21 Nov 2014 (Local Time) from KNAK Reporting Station
Clear Clear  
Wind Chill: 29°   Ceiling: Unl
Heat Index: 37°   Visibility: 10mi
Dew Point: 10°   Wind: 12mph
Humidity: 33%   Direction: 320°NW
Pressure: 30.44"   Gusts: NA
Location:  39.11°N, 76.49°W
Report Text: KNAK 211854Z AUTO 32010KT 10SM CLR 03/M12 A3044 RMK AO2 SLP310 T00281122
Loading
Personal Weather Stations






























Interactive Weather Map New forecast layout! Learn more

10-Day Weather Forecast

Advertisements
Track Severe Weather on mobile